Time;durP1;ratioP1;P1;durP2;ratioP2;P2;SDS_P1;SDS_P2;PMS_P1;PMS_P2;Temp;Humidity;BMP_temperature;BMP_pressure;BME280_temperature;BME280_humidity;BME280_pressure;Samples;Min_cycle;Max_cycle;Signal;HPM_P1;HPM_P2
2021/06/07 00:02:02;;;;;;;6.67;2.83;;;20.00;54.00;;;;;;5017303;28;20542;-48
2021/06/07 00:04:30;;;;;;;5.53;2.97;;;20.00;54.40;;;;;;5017233;28;20444;-45
2021/06/07 00:06:58;;;;;;;5.00;2.70;;;20.10;54.50;;;;;;5017457;28;20473;-47
2021/06/07 00:09:25;;;;;;;4.33;3.00;;;20.00;54.60;;;;;;5017685;28;20444;-45
2021/06/07 00:11:55;;;;;;;6.13;3.80;;;20.00;54.60;;;;;;5017621;28;20449;-46
2021/06/07 00:14:25;;;;;;;5.50;3.03;;;20.00;54.80;;;;;;5016949;28;20461;-52
2021/06/07 00:16:51;;;;;;;5.13;3.47;;;20.00;55.00;;;;;;5017290;28;20441;-51
2021/06/07 00:19:20;;;;;;;7.03;3.83;;;19.90;55.20;;;;;;5017193;28;20609;-50
2021/06/07 00:21:47;;;;;;;4.23;3.43;;;19.90;55.30;;;;;;5016697;28;20959;-46
2021/06/07 00:24:16;;;;;;;3.33;2.70;;;19.90;55.60;;;;;;5016852;28;20461;-48
2021/06/07 00:26:46;;;;;;;6.33;3.53;;;19.80;55.70;;;;;;5017049;28;20455;-47
2021/06/07 00:29:13;;;;;;;5.63;3.40;;;19.80;56.10;;;;;;5017176;28;20445;-48
2021/06/07 00:31:39;;;;;;;5.23;3.40;;;19.70;56.30;;;;;;5016635;28;20445;-48
2021/06/07 00:34:06;;;;;;;7.13;3.60;;;19.70;56.50;;;;;;5016640;28;20498;-48
2021/06/07 00:36:33;;;;;;;4.00;2.80;;;19.60;56.60;;;;;;5016715;28;20448;-47
2021/06/07 00:38:59;;;;;;;4.20;3.20;;;19.60;56.90;;;;;;5016374;28;20468;-47
2021/06/07 00:41:26;;;;;;;4.50;3.57;;;19.50;57.10;;;;;;5016956;28;20465;-44
2021/06/07 00:43:54;;;;;;;4.27;3.70;;;19.50;57.30;;;;;;5016891;28;20915;-48
2021/06/07 00:46:22;;;;;;;7.33;3.37;;;19.40;57.60;;;;;;5016846;28;20480;-45
2021/06/07 00:48:48;;;;;;;4.53;3.20;;;19.40;57.70;;;;;;5017004;28;20507;-45
2021/06/07 00:51:15;;;;;;;4.83;3.20;;;19.40;57.80;;;;;;5016649;28;20492;-47
2021/06/07 00:53:41;;;;;;;6.47;3.40;;;19.30;58.30;;;;;;5016771;28;21146;-45
2021/06/07 00:56:09;;;;;;;3.93;3.30;;;19.30;58.00;;;;;;5016824;28;20519;-46
2021/06/07 00:58:38;;;;;;;4.57;3.77;;;19.20;58.30;;;;;;5016894;28;20791;-46
2021/06/07 01:01:08;;;;;;;4.67;3.57;;;19.20;58.50;;;;;;5016483;28;20445;-45
2021/06/07 01:03:35;;;;;;;3.20;2.90;;;19.10;58.70;;;;;;5016138;28;21019;-44
2021/06/07 01:06:02;;;;;;;5.00;3.80;;;19.10;58.70;;;;;;5016396;28;20935;-47
2021/06/07 01:08:29;;;;;;;5.20;3.57;;;19.00;58.80;;;;;;5016373;28;20468;-46
2021/06/07 01:10:55;;;;;;;4.37;3.33;;;19.00;58.90;;;;;;5016523;28;20511;-50
2021/06/07 01:13:23;;;;;;;4.60;4.00;;;19.00;59.10;;;;;;5016227;28;20464;-51
2021/06/07 01:15:51;;;;;;;6.73;3.43;;;18.90;59.30;;;;;;5016493;28;20477;-46
2021/06/07 01:18:23;;;;;;;3.80;2.90;;;18.80;59.30;;;;;;5016112;28;20445;-48
2021/06/07 01:20:51;;;;;;;3.63;3.27;;;18.80;59.60;;;;;;5016191;28;20481;-45
2021/06/07 01:23:20;;;;;;;5.40;3.97;;;18.80;59.80;;;;;;5016138;28;20477;-49
2021/06/07 01:25:46;;;;;;;4.50;3.40;;;18.80;59.80;;;;;;5016125;28;21012;-46
2021/06/07 01:28:16;;;;;;;5.20;3.90;;;18.70;60.10;;;;;;5016266;28;20844;-48
2021/06/07 01:30:45;;;;;;;4.37;3.87;;;18.60;61.40;;;;;;5016065;28;20523;-49
2021/06/07 01:33:13;;;;;;;8.67;3.50;;;18.50;61.00;;;;;;5015986;28;20465;-46
2021/06/07 01:35:40;;;;;;;8.30;4.30;;;18.40;61.50;;;;;;5052383;23;20497;-47
2021/06/07 01:38:08;;;;;;;5.03;4.53;;;18.40;61.80;;;;;;5016178;28;20449;-47
2021/06/07 01:40:37;;;;;;;5.13;3.93;;;18.40;62.10;;;;;;5015860;28;20480;-45
2021/06/07 01:43:04;;;;;;;5.40;4.60;;;18.40;62.20;;;;;;5005161;28;20489;-45
2021/06/07 01:45:31;;;;;;;6.33;4.20;;;18.30;62.40;;;;;;4996361;28;20459;-47
2021/06/07 01:48:00;;;;;;;5.53;3.90;;;18.30;62.60;;;;;;4996503;28;20457;-49
2021/06/07 01:50:26;;;;;;;4.23;3.83;;;18.30;63.00;;;;;;4996737;28;20500;-51
2021/06/07 01:52:54;;;;;;;5.37;4.37;;;18.30;63.20;;;;;;4996541;28;20438;-52
2021/06/07 01:55:22;;;;;;;6.33;4.17;;;18.30;63.40;;;;;;4996005;28;20450;-47
2021/06/07 01:57:51;;;;;;;4.10;3.67;;;18.30;63.80;;;;;;4996388;28;20462;-47
2021/06/07 02:00:23;;;;;;;4.57;4.00;;;18.30;63.70;;;;;;4995841;28;20462;-47
2021/06/07 02:02:51;;;;;;;7.77;4.27;;;18.20;64.00;;;;;;4996579;28;20474;-47
2021/06/07 02:05:20;;;;;;;4.40;4.00;;;18.20;64.10;;;;;;4996010;28;20544;-50
2021/06/07 02:07:47;;;;;;;5.13;3.33;;;18.20;64.30;;;;;;4995897;28;20952;-44
2021/06/07 02:10:14;;;;;;;4.57;3.90;;;18.20;64.50;;;;;;4995704;28;20458;-46
2021/06/07 02:12:43;;;;;;;4.13;3.47;;;18.20;65.50;;;;;;4995735;28;20454;-44
2021/06/07 02:15:13;;;;;;;6.30;4.57;;;18.20;64.80;;;;;;4995827;28;20446;-45
2021/06/07 02:17:40;;;;;;;6.63;4.33;;;18.30;65.10;;;;;;4995877;28;20504;-49
2021/06/07 02:20:09;;;;;;;4.43;4.03;;;18.20;65.20;;;;;;4995619;28;20462;-44
2021/06/07 02:22:36;;;;;;;7.97;3.90;;;18.10;65.30;;;;;;4995663;28;20493;-46
2021/06/07 02:25:04;;;;;;;5.83;4.60;;;18.10;65.70;;;;;;4995413;28;20516;-44
2021/06/07 02:27:30;;;;;;;6.63;4.30;;;18.00;65.90;;;;;;4995800;28;20458;-44
2021/06/07 02:29:57;;;;;;;4.27;3.57;;;17.90;66.40;;;;;;4995890;28;20458;-43
2021/06/07 02:32:28;;;;;;;4.00;3.60;;;17.90;66.80;;;;;;4995593;28;20446;-43
2021/06/07 02:34:54;;;;;;;4.57;4.07;;;17.80;66.90;;;;;;4995756;28;20445;-47
2021/06/07 02:37:20;;;;;;;5.60;4.53;;;17.80;67.40;;;;;;5029481;28;20534;-46
2021/06/07 02:39:47;;;;;;;6.23;4.53;;;17.70;67.60;;;;;;5035657;28;20448;-47
2021/06/07 02:42:13;;;;;;;8.77;4.40;;;17.70;68.00;;;;;;5035301;28;20784;-45
2021/06/07 02:44:40;;;;;;;5.40;4.30;;;17.70;68.30;;;;;;5035742;28;20456;-49
2021/06/07 02:47:06;;;;;;;5.33;4.20;;;17.60;68.40;;;;;;5034705;28;20509;-49
2021/06/07 02:49:34;;;;;;;6.80;3.70;;;17.60;68.70;;;;;;5034750;28;20808;-50
2021/06/07 02:52:00;;;;;;;5.67;4.47;;;17.60;69.10;;;;;;5034991;28;20451;-47
2021/06/07 02:54:27;;;;;;;5.17;4.30;;;17.50;69.70;;;;;;5034949;28;20452;-51
2021/06/07 02:56:53;;;;;;;3.97;3.63;;;17.50;69.90;;;;;;5035014;28;20455;-44
2021/06/07 02:59:19;;;;;;;6.90;5.20;;;17.50;70.40;;;;;;5034803;28;20452;-46
2021/06/07 03:01:45;;;;;;;4.70;3.97;;;17.40;71.00;;;;;;5034631;28;20468;-49
2021/06/07 03:04:11;;;;;;;6.03;3.97;;;17.40;71.50;;;;;;5035365;28;20533;-51
2021/06/07 03:06:39;;;;;;;4.97;3.80;;;17.30;72.00;;;;;;5034621;28;20446;-47
2021/06/07 03:09:06;;;;;;;4.70;4.30;;;17.30;73.10;;;;;;5034072;28;20459;-47
2021/06/07 03:11:32;;;;;;;7.30;4.27;;;17.30;73.50;;;;;;5034645;28;20786;-49
2021/06/07 03:13:58;;;;;;;4.30;3.80;;;17.30;74.10;;;;;;5034435;28;20457;-47
2021/06/07 03:16:25;;;;;;;4.57;4.03;;;17.30;75.10;;;;;;5034154;28;20432;-50
2021/06/07 03:18:51;;;;;;;5.40;4.07;;;17.20;76.00;;;;;;5033972;28;20903;-47
2021/06/07 03:21:17;;;;;;;8.73;4.50;;;17.20;77.30;;;;;;5034117;28;20448;-45
2021/06/07 03:23:45;;;;;;;3.87;3.37;;;17.20;77.90;;;;;;5034491;28;20487;-48
2021/06/07 03:26:11;;;;;;;6.50;3.83;;;17.20;79.30;;;;;;5034528;28;20525;-47
2021/06/07 03:28:38;;;;;;;4.60;4.17;;;17.20;80.30;;;;;;5034566;28;20444;-45
2021/06/07 03:31:06;;;;;;;4.33;3.93;;;17.20;81.50;;;;;;5034574;28;20780;-45
2021/06/07 03:33:32;;;;;;;4.40;4.00;;;17.10;83.30;;;;;;5034702;28;20440;-45
2021/06/07 03:35:58;;;;;;;4.17;3.77;;;17.10;84.80;;;;;;5034187;28;20498;-45
2021/06/07 03:38:26;;;;;;;5.07;4.40;;;17.10;86.50;;;;;;5034238;28;20447;-47
2021/06/07 03:40:55;;;;;;;9.37;3.97;;;17.00;88.10;;;;;;5034430;28;20448;-47
2021/06/07 03:43:23;;;;;;;3.80;3.40;;;17.00;89.70;;;;;;5037238;28;20567;-49
2021/06/07 03:45:49;;;;;;;4.17;3.77;;;17.00;90.50;;;;;;5034607;28;20440;-49
2021/06/07 03:48:16;;;;;;;9.23;4.47;;;17.00;91.30;;;;;;5034102;28;20922;-48
2021/06/07 03:50:42;;;;;;;3.80;3.30;;;17.00;92.00;;;;;;5033340;28;20452;-49
2021/06/07 03:53:09;;;;;;;5.03;4.00;;;17.00;92.70;;;;;;5034077;28;20765;-48
2021/06/07 03:55:37;;;;;;;4.07;3.40;;;17.10;93.40;;;;;;5034014;28;20517;-47
2021/06/07 03:58:06;;;;;;;4.90;4.03;;;17.10;93.90;;;;;;5016670;28;20455;-46
2021/06/07 04:00:34;;;;;;;4.83;4.17;;;17.10;94.50;;;;;;5034228;28;20468;-44
2021/06/07 04:03:02;;;;;;;4.67;3.63;;;17.10;94.80;;;;;;5034349;28;20480;-43
2021/06/07 04:05:29;;;;;;;6.57;4.30;;;17.10;95.60;;;;;;5034489;28;20609;-43
2021/06/07 04:07:56;;;;;;;7.77;4.50;;;17.10;95.90;;;;;;5038147;28;20479;-44
2021/06/07 04:10:24;;;;;;;5.43;4.57;;;17.10;96.30;;;;;;5038400;28;20452;-45
2021/06/07 04:12:51;;;;;;;4.30;3.37;;;17.20;96.50;;;;;;5038222;28;20744;-45
2021/06/07 04:15:20;;;;;;;10.53;4.37;;;17.20;97.00;;;;;;5038564;28;20770;-48
2021/06/07 04:17:48;;;;;;;6.80;3.60;;;17.20;97.10;;;;;;5038014;28;20452;-47
2021/06/07 04:20:18;;;;;;;9.77;4.23;;;17.20;97.50;;;;;;5037697;28;21017;-44
2021/06/07 04:22:45;;;;;;;7.00;4.50;;;17.20;97.80;;;;;;5037489;28;20483;-46
2021/06/07 04:25:13;;;;;;;5.40;3.80;;;17.30;98.10;;;;;;5037824;28;20460;-46
2021/06/07 04:27:40;;;;;;;4.53;3.60;;;17.30;98.30;;;;;;5038022;28;20456;-44
2021/06/07 04:30:08;;;;;;;4.23;3.83;;;17.40;98.70;;;;;;5038002;28;20448;-47
2021/06/07 04:32:36;;;;;;;5.13;3.80;;;17.40;98.50;;;;;;5037742;28;20451;-46
2021/06/07 04:35:04;;;;;;;6.63;4.20;;;17.40;98.40;;;;;;5037450;28;20464;-45
2021/06/07 04:37:31;;;;;;;6.40;4.10;;;17.40;98.60;;;;;;5037007;28;20472;-47
2021/06/07 04:39:57;;;;;;;15.07;4.87;;;17.50;98.60;;;;;;5037241;28;20787;-47
2021/06/07 04:42:24;;;;;;;6.27;3.40;;;17.50;98.40;;;;;;5037131;28;20792;-48
2021/06/07 04:44:50;;;;;;;4.10;3.70;;;17.50;98.40;;;;;;5037438;28;20452;-50
2021/06/07 04:47:17;;;;;;;6.93;5.17;;;17.60;98.50;;;;;;5037313;28;20445;-45
2021/06/07 04:49:44;;;;;;;5.20;3.87;;;17.70;98.60;;;;;;5038028;28;20443;-44
2021/06/07 04:52:10;;;;;;;6.30;3.70;;;17.70;98.20;;;;;;5037973;28;20452;-43
2021/06/07 04:54:36;;;;;;;4.60;4.00;;;17.80;98.50;;;;;;5037898;28;20448;-48
2021/06/07 04:57:03;;;;;;;7.47;4.47;;;17.80;98.90;;;;;;5037384;28;20440;-49
2021/06/07 04:59:29;;;;;;;4.53;3.80;;;17.90;98.50;;;;;;5037034;28;20460;-43
2021/06/07 05:01:55;;;;;;;5.67;4.53;;;17.90;98.50;;;;;;5037168;28;20487;-47
2021/06/07 05:04:21;;;;;;;5.37;3.90;;;18.00;98.30;;;;;;5037327;28;20444;-51
2021/06/07 05:06:49;;;;;;;6.03;4.20;;;18.10;97.70;;;;;;5036853;28;20463;-47
2021/06/07 05:09:15;;;;;;;5.60;5.00;;;18.20;97.10;;;;;;5037096;28;20448;-43
2021/06/07 05:11:42;;;;;;;5.13;3.83;;;18.30;96.00;;;;;;5036298;28;20522;-46
2021/06/07 05:14:08;;;;;;;4.90;3.90;;;18.30;95.90;;;;;;5036587;28;20444;-51
2021/06/07 05:16:34;;;;;;;5.63;4.37;;;18.40;95.50;;;;;;5036660;28;20448;-47
2021/06/07 05:19:00;;;;;;;6.20;3.97;;;18.40;94.70;;;;;;5035269;28;20926;-46
2021/06/07 05:21:26;;;;;;;6.20;3.70;;;18.40;94.40;;;;;;5036712;28;20455;-45
2021/06/07 05:23:55;;;;;;;4.77;3.90;;;18.40;93.80;;;;;;5036324;28;20488;-47
2021/06/07 05:26:21;;;;;;;7.57;3.97;;;18.60;93.30;;;;;;5036589;28;20448;-51
2021/06/07 05:28:47;;;;;;;11.47;4.30;;;18.60;92.90;;;;;;5036415;28;20448;-49
2021/06/07 05:31:13;;;;;;;5.20;3.97;;;18.70;92.80;;;;;;5036309;28;20463;-49
2021/06/07 05:33:39;;;;;;;5.60;2.93;;;18.70;92.50;;;;;;5035962;28;20457;-46
2021/06/07 05:36:07;;;;;;;4.50;3.73;;;18.80;92.40;;;;;;5035448;28;20542;-50
2021/06/07 05:38:33;;;;;;;3.80;3.43;;;18.80;92.40;;;;;;5037756;28;20466;-45
2021/06/07 05:41:00;;;;;;;4.83;3.93;;;18.80;92.40;;;;;;5035235;28;20459;-47
2021/06/07 05:43:27;;;;;;;3.57;3.03;;;18.90;92.10;;;;;;5035412;28;20488;-48
2021/06/07 05:45:53;;;;;;;3.33;2.93;;;18.70;91.30;;;;;;5037427;28;20495;-46
2021/06/07 05:48:20;;;;;;;4.47;3.70;;;19.00;91.30;;;;;;5035406;28;20505;-44
2021/06/07 05:50:47;;;;;;;10.07;3.80;;;19.00;91.20;;;;;;5035818;28;20448;-50
2021/06/07 05:53:15;;;;;;;7.23;3.50;;;19.10;91.40;;;;;;5053022;28;20530;-50
2021/06/07 05:55:43;;;;;;;5.63;3.37;;;19.10;91.40;;;;;;5055696;28;20538;-49
2021/06/07 05:58:13;;;;;;;7.40;3.43;;;19.20;91.00;;;;;;5055649;28;20949;-47
2021/06/07 06:00:42;;;;;;;8.87;4.13;;;19.20;91.00;;;;;;5055509;28;20439;-44
2021/06/07 06:03:09;;;;;;;9.00;4.73;;;19.30;91.10;;;;;;5055334;28;20976;-50
2021/06/07 06:05:36;;;;;;;4.93;3.47;;;19.40;91.20;;;;;;5055521;28;20455;-44
2021/06/07 06:08:04;;;;;;;3.90;3.47;;;19.40;91.70;;;;;;5056093;28;20443;-46
2021/06/07 06:10:30;;;;;;;5.17;3.67;;;19.50;91.10;;;;;;5055206;28;20463;-46
2021/06/07 06:12:56;;;;;;;5.63;3.47;;;19.60;90.70;;;;;;5055144;28;20501;-45
2021/06/07 06:15:25;;;;;;;4.87;3.53;;;19.70;89.70;;;;;;5055270;28;20459;-45
2021/06/07 06:17:51;;;;;;;5.93;3.63;;;19.60;88.20;;;;;;5055407;28;20776;-48
2021/06/07 06:20:18;;;;;;;3.53;3.10;;;19.70;87.80;;;;;;5055300;28;20454;-47
2021/06/07 06:22:46;;;;;;;6.47;3.80;;;19.70;87.90;;;;;;5049275;28;20479;-48
2021/06/07 06:25:14;;;;;;;6.43;3.27;;;19.80;88.40;;;;;;5035378;28;20779;-45
2021/06/07 06:27:41;;;;;;;4.30;3.80;;;19.90;87.30;;;;;;5039451;28;20455;-49
2021/06/07 06:30:11;;;;;;;5.13;3.40;;;20.00;85.70;;;;;;5046884;28;20516;-46
2021/06/07 06:32:40;;;;;;;4.10;3.70;;;20.00;85.10;;;;;;5037823;28;20502;-47
2021/06/07 06:35:07;;;;;;;4.23;3.13;;;20.10;85.00;;;;;;5054813;28;20451;-46
2021/06/07 06:37:33;;;;;;;4.00;3.60;;;20.10;85.00;;;;;;5054088;28;20478;-49
2021/06/07 06:39:59;;;;;;;5.03;3.60;;;20.10;85.20;;;;;;5055035;28;20484;-45
2021/06/07 06:42:25;;;;;;;6.80;4.10;;;20.30;86.30;;;;;;5054964;28;20574;-47
2021/06/07 06:44:51;;;;;;;4.93;2.90;;;20.30;85.00;;;;;;5054848;28;20860;-48
2021/06/07 06:47:17;;;;;;;3.70;3.40;;;20.40;84.70;;;;;;5062283;28;20442;-46
2021/06/07 06:49:45;;;;;;;4.30;3.50;;;20.60;83.90;;;;;;5062728;28;20467;-51
2021/06/07 06:52:12;;;;;;;7.67;4.13;;;20.70;83.50;;;;;;5036262;28;20448;-48
2021/06/07 06:54:39;;;;;;;8.07;4.63;;;20.80;83.80;;;;;;5040076;28;20509;-52
2021/06/07 06:57:06;;;;;;;16.63;4.50;;;20.90;83.60;;;;;;5050143;28;20451;-47
2021/06/07 06:59:32;;;;;;;7.63;4.00;;;21.00;81.80;;;;;;5047835;28;20459;-48
2021/06/07 07:01:58;;;;;;;8.50;3.87;;;21.10;81.00;;;;;;5048271;28;20912;-50
2021/06/07 07:04:24;;;;;;;5.77;4.00;;;21.30;81.50;;;;;;5053034;28;20933;-47
2021/06/07 07:06:52;;;;;;;4.63;3.50;;;21.50;80.30;;;;;;5049168;28;20493;-52
2021/06/07 07:09:18;;;;;;;4.10;3.43;;;21.70;80.00;;;;;;5051224;28;20440;-46
2021/06/07 07:11:44;;;;;;;5.90;4.47;;;21.90;78.60;;;;;;5060232;28;20439;-48
2021/06/07 07:14:10;;;;;;;5.40;4.13;;;22.10;77.80;;;;;;5046729;28;20471;-48
2021/06/07 07:16:37;;;;;;;5.00;4.10;;;22.40;78.40;;;;;;5047620;28;20784;-47
2021/06/07 07:19:03;;;;;;;10.30;8.03;;;23.40;76.60;;;;;;5048219;28;20450;-50
2021/06/07 07:21:29;;;;;;;7.07;5.40;;;24.90;72.10;;;;;;5052999;28;20447;-49
2021/06/07 07:23:57;;;;;;;10.23;4.43;;;26.70;64.20;;;;;;5053224;28;20494;-46
2021/06/07 07:26:23;;;;;;;5.20;4.07;;;28.50;58.50;;;;;;5053302;28;20473;-50
2021/06/07 07:28:49;;;;;;;7.97;4.20;;;29.90;53.20;;;;;;5051578;28;20463;-51
2021/06/07 07:31:15;;;;;;;5.93;3.97;;;31.20;50.20;;;;;;5053581;28;20470;-51
2021/06/07 07:33:45;;;;;;;7.40;3.80;;;32.30;47.60;;;;;;5053420;28;20469;-47
2021/06/07 07:36:12;;;;;;;7.57;4.03;;;33.80;45.30;;;;;;5052265;28;20851;-51
2021/06/07 07:38:38;;;;;;;4.37;3.97;;;34.50;41.50;;;;;;5051246;28;20451;-51
2021/06/07 07:41:06;;;;;;;6.20;4.33;;;34.60;39.60;;;;;;5053548;28;20447;-50
2021/06/07 07:43:32;;;;;;;5.60;3.63;;;34.70;39.70;;;;;;5053458;28;20500;-47
2021/06/07 07:45:59;;;;;;;6.30;4.00;;;35.00;38.50;;;;;;5055790;28;20455;-46
2021/06/07 07:48:25;;;;;;;3.80;3.50;;;35.40;38.10;;;;;;5059492;28;20443;-49
2021/06/07 07:50:52;;;;;;;6.13;4.13;;;35.80;37.70;;;;;;5059973;28;20805;-48
2021/06/07 07:53:19;;;;;;;7.10;3.27;;;36.20;36.00;;;;;;5055843;28;20439;-47
2021/06/07 07:55:45;;;;;;;4.07;3.77;;;36.20;35.60;;;;;;5055412;28;20896;-48
2021/06/07 07:58:13;;;;;;;8.93;4.70;;;36.10;35.60;;;;;;5055675;28;20451;-49
2021/06/07 08:00:41;;;;;;;5.20;3.43;;;36.50;35.60;;;;;;5055894;28;20505;-49
2021/06/07 08:03:08;;;;;;;5.33;3.83;;;36.40;34.70;;;;;;5056536;28;20478;-46
2021/06/07 08:05:34;;;;;;;6.67;3.87;;;36.40;35.30;;;;;;5056949;28;20919;-49
2021/06/07 08:08:00;;;;;;;4.23;3.80;;;36.50;35.10;;;;;;5057626;28;20790;-45
2021/06/07 08:10:28;;;;;;;6.40;3.70;;;36.80;34.90;;;;;;5054958;28;20513;-49
2021/06/07 08:12:55;;;;;;;4.60;3.80;;;36.90;34.40;;;;;;5055765;28;20459;-51
2021/06/07 08:15:23;;;;;;;4.13;3.50;;;36.90;34.00;;;;;;5055505;28;20943;-48
2021/06/07 08:17:49;;;;;;;5.10;4.60;;;37.00;34.10;;;;;;5056117;28;20451;-49
2021/06/07 08:20:17;;;;;;;7.67;5.50;;;37.10;34.30;;;;;;5056079;28;20443;-51
2021/06/07 08:22:45;;;;;;;7.90;4.50;;;37.00;34.30;;;;;;5055834;28;20980;-51
2021/06/07 08:25:12;;;;;;;6.27;4.00;;;36.90;34.50;;;;;;5057301;28;20457;-47
2021/06/07 08:27:38;;;;;;;4.43;3.40;;;36.80;33.60;;;;;;5057806;28;20487;-48
2021/06/07 08:30:06;;;;;;;5.17;4.20;;;37.10;34.20;;;;;;5057548;28;20894;-49
2021/06/07 08:32:34;;;;;;;5.67;4.30;;;37.30;33.80;;;;;;5057590;28;20748;-47
2021/06/07 08:35:00;;;;;;;8.30;3.67;;;37.50;33.70;;;;;;5056246;28;20443;-51
2021/06/07 08:37:27;;;;;;;5.17;3.40;;;37.70;32.70;;;;;;5055351;28;20471;-50
2021/06/07 08:39:53;;;;;;;4.00;3.60;;;37.80;32.80;;;;;;5054795;28;20917;-50
2021/06/07 08:42:20;;;;;;;6.37;3.83;;;37.50;33.00;;;;;;5055321;28;20485;-46
2021/06/07 08:44:46;;;;;;;11.00;3.80;;;37.20;33.20;;;;;;5051096;28;20913;-49
2021/06/07 08:47:12;;;;;;;6.40;3.50;;;37.00;33.50;;;;;;5050634;28;20456;-53
2021/06/07 08:49:40;;;;;;;5.77;4.10;;;37.00;33.10;;;;;;5053908;28;20915;-49
2021/06/07 08:52:07;;;;;;;4.50;3.73;;;37.20;33.10;;;;;;5054818;28;20451;-49
2021/06/07 08:54:34;;;;;;;7.20;4.00;;;37.60;33.40;;;;;;5053705;28;20443;-50
2021/06/07 08:57:00;;;;;;;4.47;4.07;;;37.70;32.60;;;;;;5053652;28;20787;-52
2021/06/07 08:59:26;;;;;;;4.93;3.87;;;37.90;32.50;;;;;;5052739;28;20925;-48
2021/06/07 09:01:56;;;;;;;6.20;4.57;;;37.80;32.10;;;;;;5053951;28;20459;-52
2021/06/07 09:04:24;;;;;;;3.93;3.63;;;37.90;32.80;;;;;;5055139;28;20566;-50
2021/06/07 09:06:52;;;;;;;4.77;3.70;;;38.00;32.50;;;;;;5054396;28;20462;-50
2021/06/07 09:09:22;;;;;;;4.27;3.87;;;37.80;32.80;;;;;;5053523;28;20459;-46
2021/06/07 09:11:57;;;;;;;4.90;3.93;;;37.80;32.50;;;;;;5054545;28;20447;-50
2021/06/07 09:14:25;;;;;;;5.07;3.80;;;37.90;32.30;;;;;;5050675;28;20819;-48
2021/06/07 09:16:52;;;;;;;5.60;3.77;;;37.80;31.80;;;;;;5054470;28;20470;-46
2021/06/07 09:19:23;;;;;;;5.20;4.80;;;37.90;32.30;;;;;;5053061;28;20443;-50
2021/06/07 09:21:54;;;;;;;7.10;4.50;;;38.00;32.10;;;;;;5055942;28;20443;-47
2021/06/07 09:24:20;;;;;;;4.57;3.73;;;38.10;31.90;;;;;;5055181;28;20949;-49
2021/06/07 09:26:48;;;;;;;6.30;3.83;;;38.10;31.20;;;;;;5055646;28;20482;-47
2021/06/07 09:29:36;;;;;;;7.97;3.77;;;38.20;31.90;;;;;;5054519;28;20857;-48
2021/06/07 09:32:03;;;;;;;8.80;3.83;;;38.00;32.00;;;;;;5054401;28;20475;-49
2021/06/07 09:34:35;;;;;;;4.30;3.87;;;37.80;31.70;;;;;;5053191;28;20530;-49
2021/06/07 09:37:07;;;;;;;6.23;3.50;;;37.80;32.10;;;;;;5053618;28;20506;-47
2021/06/07 09:39:34;;;;;;;5.13;3.97;;;37.90;31.80;;;;;;5052850;28;20962;-49
2021/06/07 09:42:01;;;;;;;4.50;4.10;;;37.90;31.60;;;;;;5053966;28;20833;-45
2021/06/07 09:44:45;;;;;;;5.77;3.83;;;37.80;31.70;;;;;;5053346;28;20478;-51
2021/06/07 09:47:17;;;;;;;4.10;3.80;;;37.60;31.40;;;;;;5049179;28;20451;-48
2021/06/07 09:49:47;;;;;;;4.80;4.40;;;37.60;30.90;;;;;;5052897;28;20510;-53
2021/06/07 09:52:21;;;;;;;5.53;3.50;;;37.60;30.60;;;;;;5054179;28;20459;-47
2021/06/07 09:55:10;;;;;;;6.20;4.87;;;37.40;30.70;;;;;;5053733;28;20505;-45
2021/06/07 09:57:41;;;;;;;4.70;4.10;;;37.30;30.80;;;;;;5049723;28;20538;-49
2021/06/07 10:00:08;;;;;;;12.03;4.30;;;37.30;30.90;;;;;;5054937;28;20498;-49
2021/06/07 10:02:36;;;;;;;7.30;4.50;;;37.20;31.20;;;;;;5055110;28;20475;-49
2021/06/07 10:05:04;;;;;;;5.50;4.50;;;37.30;31.40;;;;;;5048743;28;20458;-50
2021/06/07 10:07:32;;;;;;;11.70;4.70;;;37.00;31.90;;;;;;5054856;28;20443;-48
2021/06/07 10:10:09;;;;;;;10.20;4.37;;;36.90;31.80;;;;;;5052797;28;20821;-52
2021/06/07 10:12:35;;;;;;;9.20;4.23;;;36.90;31.50;;;;;;5050603;28;20608;-50
2021/06/07 10:15:02;;;;;;;7.13;4.87;;;36.60;32.90;;;;;;5054403;28;20468;-52
2021/06/07 10:17:28;;;;;;;5.03;3.70;;;36.40;32.30;;;;;;5053981;28;20463;-51
2021/06/07 10:22:38;;;;;;;8.50;4.33;;;36.40;32.10;;;;;;5053185;28;20439;-47
2021/06/07 10:25:06;;;;;;;10.00;4.10;;;36.20;30.60;;;;;;5053014;28;20440;-46
2021/06/07 10:27:32;;;;;;;6.20;4.60;;;36.10;32.50;;;;;;5049115;28;20443;-47
2021/06/07 10:29:59;;;;;;;3.97;3.60;;;36.00;32.10;;;;;;5053078;28;20508;-52
2021/06/07 10:32:29;;;;;;;7.00;4.63;;;35.90;33.50;;;;;;5053544;28;20501;-55
2021/06/07 10:34:57;;;;;;;4.43;3.87;;;35.70;34.30;;;;;;5053181;28;20455;-51
2021/06/07 10:37:25;;;;;;;4.27;3.97;;;35.30;34.00;;;;;;5053199;28;20475;-52
2021/06/07 10:39:52;;;;;;;4.90;4.00;;;34.90;33.70;;;;;;5052623;28;20459;-56
2021/06/07 10:42:24;;;;;;;4.10;3.80;;;34.50;32.70;;;;;;5055114;28;20451;-48
2021/06/07 10:44:57;;;;;;;3.70;3.30;;;34.20;34.10;;;;;;5048702;28;20483;-48
2021/06/07 10:47:26;;;;;;;5.27;3.77;;;33.70;33.40;;;;;;5052703;28;20455;-51
2021/06/07 10:49:58;;;;;;;4.47;4.07;;;33.40;35.80;;;;;;5051852;28;20454;-51
2021/06/07 10:52:26;;;;;;;5.90;3.30;;;33.10;36.10;;;;;;5052778;28;20467;-46
2021/06/07 10:54:59;;;;;;;3.83;3.43;;;32.90;35.10;;;;;;5052743;28;20522;-50
2021/06/07 10:57:33;;;;;;;4.47;4.07;;;32.70;35.30;;;;;;5052166;28;20891;-53
2021/06/07 11:00:04;;;;;;;4.50;4.10;;;32.50;35.20;;;;;;5051820;28;20450;-52
2021/06/07 11:02:34;;;;;;;4.30;3.90;;;32.20;35.50;;;;;;5052494;28;20886;-50
2021/06/07 11:05:04;;;;;;;5.17;3.73;;;32.00;35.90;;;;;;5048089;28;20459;-53
2021/06/07 11:07:30;;;;;;;4.43;4.03;;;31.80;36.00;;;;;;5051810;28;20470;-46
2021/06/07 11:10:29;;;;;;;4.60;4.20;;;31.40;36.20;;;;;;5051223;28;20455;-46
2021/06/07 11:12:57;;;;;;;8.63;4.00;;;31.20;37.50;;;;;;4981421;28;20437;-50
2021/06/07 11:15:26;;;;;;;6.90;4.60;;;30.90;37.90;;;;;;5031257;28;20845;-45
2021/06/07 11:18:13;;;;;;;3.87;3.57;;;30.80;38.40;;;;;;5056093;28;21080;-44
2021/06/07 11:20:40;;;;;;;5.23;4.17;;;30.90;37.00;;;;;;5055482;28;20482;-47
2021/06/07 11:23:09;;;;;;;8.77;5.10;;;30.80;37.10;;;;;;5056266;28;20570;-46
2021/06/07 11:25:50;;;;;;;4.93;4.53;;;30.80;37.80;;;;;;5054982;28;20506;-47
2021/06/07 11:28:43;;;;;;;5.57;4.30;;;30.80;38.20;;;;;;5056304;28;20455;-49
2021/06/07 11:31:52;;;;;;;4.90;3.80;;;30.60;37.80;;;;;;5038308;28;20497;-48
2021/06/07 11:34:34;;;;;;;4.57;3.67;;;30.50;38.20;;;;;;5056398;28;20459;-51
2021/06/07 11:37:00;;;;;;;4.20;3.30;;;30.50;38.40;;;;;;5057003;28;20486;-53
2021/06/07 11:39:28;;;;;;;4.50;4.10;;;30.50;39.30;;;;;;5055393;28;20538;-47
2021/06/07 11:42:04;;;;;;;5.93;3.67;;;30.50;39.00;;;;;;5052268;28;20438;-49
2021/06/07 11:44:47;;;;;;;6.57;3.83;;;30.30;38.70;;;;;;5056088;28;20481;-49
2021/06/07 11:47:15;;;;;;;6.53;3.97;;;30.00;39.00;;;;;;5056092;28;20452;-52
2021/06/07 11:50:04;;;;;;;4.23;3.83;;;29.80;38.90;;;;;;5055640;28;20921;-51
2021/06/07 11:52:51;;;;;;;4.97;3.60;;;29.80;40.30;;;;;;5054643;28;20435;-47
2021/06/07 11:55:31;;;;;;;4.80;4.30;;;29.80;39.90;;;;;;5053325;28;20462;-50
2021/06/07 11:58:11;;;;;;;4.03;3.07;;;29.70;39.60;;;;;;5054807;28;20499;-52
2021/06/07 12:00:40;;;;;;;3.20;2.90;;;29.60;39.90;;;;;;5056564;28;20431;-47
2021/06/07 12:03:09;;;;;;;3.83;3.53;;;29.60;38.90;;;;;;5055354;28;20471;-51
2021/06/07 12:05:35;;;;;;;7.13;3.70;;;29.60;38.70;;;;;;5054050;28;20455;-44
2021/06/07 12:08:06;;;;;;;6.27;3.73;;;29.60;38.90;;;;;;5055034;28;20508;-44
2021/06/07 12:10:33;;;;;;;6.83;3.63;;;29.60;39.60;;;;;;5055895;28;20450;-49
2021/06/07 12:13:19;;;;;;;5.40;4.30;;;29.60;39.50;;;;;;5055427;28;20439;-49
2021/06/07 12:15:50;;;;;;;3.77;3.47;;;29.60;40.20;;;;;;5054604;28;20945;-49
2021/06/07 12:18:33;;;;;;;5.07;4.37;;;29.50;40.20;;;;;;5055326;28;20443;-48
2021/06/07 12:21:01;;;;;;;4.70;4.03;;;29.50;39.80;;;;;;5044300;28;20443;-47
2021/06/07 12:23:30;;;;;;;4.60;4.20;;;29.50;39.50;;;;;;5054329;28;21003;-51
2021/06/07 12:28:42;;;;;;;5.57;4.30;;;29.50;39.20;;;;;;5055645;28;20465;-49
2021/06/07 12:31:08;;;;;;;4.00;3.60;;;29.60;38.70;;;;;;5056234;28;20454;-47
2021/06/07 12:33:36;;;;;;;9.10;4.27;;;29.50;38.90;;;;;;5055095;28;20443;-49
2021/06/07 12:36:04;;;;;;;4.27;3.87;;;29.50;38.90;;;;;;5056149;28;20479;-50
2021/06/07 12:38:31;;;;;;;3.83;3.43;;;29.60;38.50;;;;;;5055397;28;20447;-53
2021/06/07 12:40:59;;;;;;;3.50;3.20;;;29.70;37.50;;;;;;5055180;28;20486;-51
2021/06/07 12:43:29;;;;;;;3.97;3.40;;;29.70;37.10;;;;;;5054559;28;20923;-50
2021/06/07 12:46:00;;;;;;;3.77;3.47;;;29.60;37.50;;;;;;5054594;28;20431;-53
2021/06/07 12:48:28;;;;;;;6.50;3.80;;;29.50;37.10;;;;;;5055350;28;20491;-52
2021/06/07 12:50:55;;;;;;;4.67;3.73;;;29.40;37.80;;;;;;5055017;28;20991;-51
2021/06/07 12:53:24;;;;;;;5.43;3.20;;;29.20;38.40;;;;;;5054985;28;20439;-54
2021/06/07 12:55:51;;;;;;;5.30;4.00;;;29.20;39.00;;;;;;5054925;28;20948;-47
2021/06/07 12:58:20;;;;;;;4.00;3.50;;;29.30;38.70;;;;;;5055019;28;20478;-47